Time;durP1;ratioP1;P1;durP2;ratioP2;P2;SDS_P1;SDS_P2;PMS_P1;PMS_P2;Temp;Humidity;BMP_temperature;BMP_pressure;BME280_temperature;BME280_humidity;BME280_pressure;Samples;Min_cycle;Max_cycle;Signal;HPM_P1;HPM_P2
2021/10/21 00:02:23;;;;;;;16.75;9.07;;;;;;;13.85;100.00;98579.91;4998249;28;20385;-87
2021/10/21 00:04:49;;;;;;;12.25;8.38;;;;;;;13.87;100.00;98561.63;5008067;28;20550;-87
2021/10/21 00:07:14;;;;;;;15.02;8.48;;;;;;;13.88;100.00;98555.16;4984299;28;20121;-87
2021/10/21 00:09:40;;;;;;;11.95;8.27;;;;;;;13.89;100.00;98551.38;5009946;28;20513;-87
2021/10/21 00:12:05;;;;;;;12.05;7.53;;;;;;;13.93;100.00;98547.16;5008592;28;20053;-88
2021/10/21 00:14:32;;;;;;;14.55;8.07;;;;;;;13.94;100.00;98530.72;5007775;28;20065;-89
2021/10/21 00:16:58;;;;;;;15.15;8.30;;;;;;;13.96;100.00;98512.44;5009623;28;20117;-90
2021/10/21 00:19:23;;;;;;;18.23;8.18;;;;;;;13.98;100.00;98504.09;5008671;28;20062;-89
2021/10/21 00:21:49;;;;;;;11.80;7.97;;;;;;;14.00;100.00;98491.22;5008922;28;20050;-89
2021/10/21 00:24:15;;;;;;;14.35;8.52;;;;;;;14.03;100.00;98484.50;4981627;28;20057;-89
2021/10/21 00:26:41;;;;;;;15.90;8.38;;;;;;;14.03;100.00;98463.75;5006830;28;20402;-88
2021/10/21 00:29:06;;;;;;;14.10;7.60;;;;;;;14.08;100.00;98450.38;5025795;28;20054;-85
2021/10/21 00:31:32;;;;;;;13.95;7.07;;;;;;;14.11;100.00;98436.38;5031327;28;20042;-88
2021/10/21 00:33:57;;;;;;;12.77;7.75;;;;;;;14.14;100.00;98421.59;5023995;28;20133;-88
2021/10/21 00:36:23;;;;;;;15.13;7.43;;;;;;;14.15;100.00;98423.22;4997532;28;20038;-89
2021/10/21 00:38:48;;;;;;;10.38;7.05;;;;;;;14.18;100.00;98434.38;4984615;28;20046;-89
2021/10/21 00:41:14;;;;;;;14.05;7.47;;;;;;;14.21;100.00;98444.66;4999473;28;20412;-87
2021/10/21 00:43:40;;;;;;;11.68;6.18;;;;;;;14.22;100.00;98419.31;5006728;28;20108;-86
2021/10/21 00:46:07;;;;;;;12.60;7.00;;;;;;;14.24;100.00;98413.66;4992226;28;20042;-87
2021/10/21 00:48:34;;;;;;;11.73;6.82;;;;;;;14.26;100.00;98392.66;4992754;28;20046;-86
2021/10/21 00:51:00;;;;;;;11.80;6.57;;;;;;;14.28;100.00;98376.25;4963972;28;20034;-88
2021/10/21 00:53:29;;;;;;;12.38;6.45;;;;;;;14.26;100.00;98373.78;4991682;28;20042;-87
2021/10/21 00:55:54;;;;;;;11.20;6.93;;;;;;;14.26;100.00;98343.28;4992556;28;20468;-87
2021/10/21 00:58:20;;;;;;;12.60;6.85;;;;;;;14.26;100.00;98346.00;4997136;28;20102;-88
2021/10/21 01:00:46;;;;;;;11.70;6.60;;;;;;;14.25;100.00;98341.66;4973689;28;21260;-88
2021/10/21 01:03:12;;;;;;;11.25;6.32;;;;;;;14.25;100.00;98336.28;5007562;28;20069;-87
2021/10/21 01:05:38;;;;;;;12.02;5.97;;;;;;;14.24;100.00;98338.13;4990394;28;20065;-87
2021/10/21 01:08:03;;;;;;;10.13;5.85;;;;;;;14.27;100.00;98307.16;4981608;28;20042;-88
2021/10/21 01:10:29;;;;;;;10.20;6.00;;;;;;;14.25;100.00;98283.13;4998240;28;20511;-88
2021/10/21 01:12:54;;;;;;;10.50;5.55;;;;;;;14.25;100.00;98282.31;4993417;28;20049;-88
2021/10/21 01:15:23;;;;;;;12.35;5.95;;;;;;;14.23;100.00;98304.13;4987463;28;20046;-86
2021/10/21 01:17:52;;;;;;;9.55;5.80;;;;;;;14.23;100.00;98291.47;5009779;28;20054;-88
2021/10/21 01:20:18;;;;;;;;;;;;;;;14.23;100.00;98288.75;4994557;28;20056;-89
2021/10/21 01:22:45;;;;;;;10.27;5.40;;;;;;;14.15;100.00;98264.91;5007874;28;19924;-88
2021/10/21 01:25:10;;;;;;;9.93;5.25;;;;;;;14.12;100.00;98257.31;4998782;28;20088;-88
2021/10/21 01:27:36;;;;;;;12.43;5.75;;;;;;;14.12;100.00;98251.13;5012091;28;20049;-89
2021/10/21 01:30:03;;;;;;;9.25;5.30;;;;;;;14.14;100.00;98246.31;5007720;28;20247;-89
2021/10/21 01:32:34;;;;;;;8.50;5.28;;;;;;;14.13;100.00;98237.41;5011776;28;20056;-88
2021/10/21 01:35:01;;;;;;;8.18;5.22;;;;;;;14.14;100.00;98249.00;5007130;28;20038;-88
2021/10/21 01:37:26;;;;;;;9.00;4.93;;;;;;;14.13;100.00;98209.63;4984693;28;20046;-88
2021/10/21 01:39:51;;;;;;;6.63;3.83;;;;;;;14.09;100.00;98224.66;4994271;28;20048;-88
2021/10/21 01:42:17;;;;;;;6.30;4.10;;;;;;;14.09;100.00;98235.44;4993496;28;20038;-86
2021/10/21 01:44:42;;;;;;;6.18;3.20;;;;;;;14.07;100.00;98235.72;5009301;28;20081;-88
2021/10/21 01:47:08;;;;;;;4.78;2.72;;;;;;;14.01;100.00;98228.59;4997782;28;20050;-88
2021/10/21 01:49:33;;;;;;;6.93;2.63;;;;;;;14.01;100.00;98233.97;5008991;28;20037;-87
2021/10/21 01:51:58;;;;;;;4.22;2.33;;;;;;;13.96;100.00;98215.06;5010596;28;20507;-88
2021/10/21 01:54:24;;;;;;;7.32;2.53;;;;;;;13.94;100.00;98201.00;5010967;28;20128;-88
2021/10/21 01:56:49;;;;;;;3.72;1.92;;;;;;;13.93;100.00;98221.75;5001841;28;20062;-88
2021/10/21 01:59:14;;;;;;;5.18;2.15;;;;;;;13.92;100.00;98209.31;4993927;28;20416;-89
2021/10/21 02:01:40;;;;;;;4.28;1.83;;;;;;;13.91;100.00;98202.31;5011103;28;20042;-88
2021/10/21 02:04:05;;;;;;;3.90;1.85;;;;;;;13.91;99.63;98207.72;5011589;28;20068;-88
2021/10/21 02:06:31;;;;;;;3.63;1.45;;;;;;;13.91;98.83;98204.19;4972261;28;20404;-88
2021/10/21 02:08:56;;;;;;;4.70;1.52;;;;;;;13.89;97.43;98193.66;4989334;28;20488;-87
2021/10/21 02:11:22;;;;;;;3.97;1.63;;;;;;;13.92;96.58;98189.66;4971024;28;20046;-87
2021/10/21 02:13:48;;;;;;;4.00;1.77;;;;;;;13.94;96.85;98174.03;5001799;28;20046;-87
2021/10/21 02:16:14;;;;;;;5.22;2.60;;;;;;;13.95;96.91;98173.81;5004723;28;20034;-88
2021/10/21 02:18:40;;;;;;;3.47;1.63;;;;;;;13.94;96.92;98165.97;5004538;28;20436;-88
2021/10/21 02:21:05;;;;;;;2.67;1.17;;;;;;;13.85;91.83;98208.69;4988671;28;20105;-89
2021/10/21 02:23:30;;;;;;;3.58;1.27;;;;;;;13.86;90.01;98193.34;5003527;28;22369;-88
2021/10/21 02:25:56;;;;;;;6.57;1.48;;;;;;;13.85;89.40;98186.31;4997216;28;20048;-88
2021/10/21 02:28:21;;;;;;;4.63;1.63;;;;;;;13.82;89.51;98208.41;4985942;28;20129;-88
2021/10/21 02:30:47;;;;;;;3.22;1.17;;;;;;;13.74;86.15;98205.03;4990790;28;20089;-89
2021/10/21 02:33:13;;;;;;;3.50;1.00;;;;;;;13.66;84.52;98224.31;5000994;28;20754;-87
2021/10/21 02:35:39;;;;;;;5.20;1.02;;;;;;;13.61;82.79;98226.13;4984368;28;20576;-86
2021/10/21 02:38:05;;;;;;;3.85;0.70;;;;;;;13.54;81.43;98226.28;4988162;28;20048;-87
2021/10/21 02:40:30;;;;;;;4.82;0.88;;;;;;;13.47;81.47;98220.28;5003959;28;20030;-87
2021/10/21 02:42:56;;;;;;;3.50;0.95;;;;;;;13.44;80.79;98226.16;4986216;28;20133;-86
2021/10/21 02:45:21;;;;;;;3.97;0.85;;;;;;;13.39;80.78;98244.91;4987622;28;20528;-87
2021/10/21 02:47:48;;;;;;;3.53;0.93;;;;;;;13.32;80.82;98229.75;5002697;28;20042;-86
2021/10/21 02:50:13;;;;;;;4.90;0.80;;;;;;;13.25;79.98;98247.06;4988586;28;22414;-87
2021/10/21 02:52:39;;;;;;;4.13;0.90;;;;;;;13.20;79.36;98245.09;5001789;28;20045;-86
2021/10/21 02:55:05;;;;;;;9.07;1.00;;;;;;;13.16;79.44;98217.03;4989118;28;20049;-86
2021/10/21 02:57:31;;;;;;;3.47;0.75;;;;;;;13.12;79.66;98232.06;4985994;28;20068;-87
2021/10/21 02:59:56;;;;;;;6.55;0.77;;;;;;;13.09;79.47;98229.84;4984130;28;20049;-86
2021/10/21 03:02:21;;;;;;;5.13;0.73;;;;;;;13.06;79.89;98236.53;5004991;28;20046;-87
2021/10/21 03:04:47;;;;;;;2.95;0.63;;;;;;;13.04;79.71;98224.38;4985827;28;20100;-86
2021/10/21 03:07:12;;;;;;;3.40;0.68;;;;;;;13.01;79.72;98241.00;4998283;28;20108;-87
2021/10/21 03:09:38;;;;;;;6.15;0.88;;;;;;;12.97;80.26;98237.97;4982321;28;20729;-86
2021/10/21 03:12:03;;;;;;;3.10;0.63;;;;;;;12.94;80.38;98222.31;4993860;28;20033;-87
2021/10/21 03:14:29;;;;;;;3.17;0.60;;;;;;;12.93;80.57;98227.94;4985483;28;20062;-87
2021/10/21 03:16:55;;;;;;;3.20;1.00;;;;;;;12.92;80.43;98220.91;4986521;28;20049;-86
2021/10/21 03:19:20;;;;;;;3.22;0.90;;;;;;;12.90;80.60;98225.75;5002988;28;20392;-86
2021/10/21 03:21:46;;;;;;;5.50;1.05;;;;;;;12.84;81.09;98236.41;5000168;28;20050;-87
2021/10/21 03:24:11;;;;;;;5.32;0.75;;;;;;;12.83;81.36;98240.16;4984214;28;20444;-86
2021/10/21 03:26:37;;;;;;;7.80;0.90;;;;;;;12.81;81.82;98236.88;5001983;28;20065;-87
2021/10/21 03:29:03;;;;;;;5.82;0.85;;;;;;;12.77;83.47;98229.53;4987481;28;20045;-86
2021/10/21 03:31:29;;;;;;;7.57;0.90;;;;;;;12.72;83.81;98227.56;5001054;28;20073;-86
2021/10/21 03:33:56;;;;;;;5.03;0.82;;;;;;;12.70;84.84;98228.88;5001666;28;20492;-87
2021/10/21 03:36:22;;;;;;;4.88;1.05;;;;;;;12.63;86.52;98248.66;5000306;28;20051;-87
2021/10/21 03:38:47;;;;;;;4.82;0.82;;;;;;;12.54;87.10;98260.03;4970112;28;20738;-87
2021/10/21 03:41:13;;;;;;;3.58;0.80;;;;;;;12.50;88.04;98234.66;4998351;28;20056;-86
2021/10/21 03:43:38;;;;;;;3.33;0.90;;;;;;;12.45;88.16;98231.88;4985670;28;20485;-86
2021/10/21 03:46:03;;;;;;;4.55;0.75;;;;;;;12.44;88.48;98227.56;4999200;28;20519;-86
2021/10/21 03:48:29;;;;;;;4.75;0.75;;;;;;;12.45;88.77;98219.22;4997633;28;20088;-86
2021/10/21 03:50:54;;;;;;;5.03;0.90;;;;;;;12.45;89.03;98216.53;5002237;28;20049;-87
2021/10/21 03:53:20;;;;;;;4.78;0.65;;;;;;;12.39;89.26;98234.44;4996605;28;20042;-87
2021/10/21 03:55:45;;;;;;;4.03;0.88;;;;;;;12.38;90.05;98216.69;4990230;28;20026;-87
2021/10/21 03:58:12;;;;;;;4.57;0.90;;;;;;;12.33;90.49;98219.28;5013205;28;20057;-86
2021/10/21 04:00:38;;;;;;;3.63;0.77;;;;;;;12.30;90.87;98222.44;5028101;28;20037;-85
2021/10/21 04:03:04;;;;;;;6.53;1.25;;;;;;;12.28;91.28;98219.16;5007943;28;20056;-86
2021/10/21 04:05:29;;;;;;;3.83;1.02;;;;;;;12.27;92.00;98219.41;4999337;28;20042;-87
2021/10/21 04:07:55;;;;;;;3.50;0.90;;;;;;;12.22;92.44;98209.34;4979797;28;20048;-86
2021/10/21 04:10:20;;;;;;;5.03;0.98;;;;;;;12.17;92.91;98211.97;4980712;28;20042;-86
2021/10/21 04:12:46;;;;;;;5.50;1.30;;;;;;;12.17;93.19;98211.97;5001156;28;20032;-86
2021/10/21 04:15:11;;;;;;;5.53;1.45;;;;;;;12.18;93.72;98202.84;4981748;28;20116;-86
2021/10/21 04:17:37;;;;;;;5.95;1.40;;;;;;;12.17;94.31;98211.97;5001475;28;20045;-87
2021/10/21 04:20:04;;;;;;;5.70;0.90;;;;;;;12.12;94.86;98201.09;4996592;28;20460;-86
2021/10/21 04:22:30;;;;;;;5.85;1.17;;;;;;;12.07;95.28;98203.69;4987130;28;20042;-86
2021/10/21 04:24:55;;;;;;;4.10;0.80;;;;;;;12.06;95.60;98194.00;4986053;28;20121;-86
2021/10/21 04:27:21;;;;;;;5.35;0.82;;;;;;;12.03;95.63;98199.84;4993614;28;20406;-87
2021/10/21 04:29:46;;;;;;;5.93;0.85;;;;;;;12.04;95.65;98193.41;4984880;28;20155;-86
2021/10/21 04:32:12;;;;;;;4.00;1.08;;;;;;;12.03;95.79;98197.97;4965259;28;20046;-87
2021/10/21 04:34:37;;;;;;;3.25;0.80;;;;;;;12.00;95.92;98202.97;4988652;28;20046;-86
2021/10/21 04:37:03;;;;;;;5.30;1.10;;;;;;;11.96;95.99;98189.19;5003098;28;20129;-86
2021/10/21 04:39:28;;;;;;;3.22;0.82;;;;;;;11.97;96.32;98201.59;5001195;28;20138;-86
2021/10/21 04:41:54;;;;;;;5.82;1.05;;;;;;;11.95;96.55;98191.06;4985654;28;20501;-86
2021/10/21 04:44:20;;;;;;;4.93;1.00;;;;;;;11.96;96.70;98202.63;4996422;28;20042;-87
2021/10/21 04:46:46;;;;;;;4.47;0.93;;;;;;;11.94;97.07;98200.19;4999921;28;20093;-87
2021/10/21 04:49:11;;;;;;;2.45;0.70;;;;;;;11.91;97.57;98200.66;5003562;28;20107;-87
2021/10/21 04:51:36;;;;;;;3.35;0.60;;;;;;;11.90;97.62;98209.78;5001895;28;20046;-86
2021/10/21 04:54:02;;;;;;;3.95;0.90;;;;;;;11.89;98.43;98210.03;5001396;28;20038;-86
2021/10/21 04:56:27;;;;;;;4.18;0.77;;;;;;;11.86;99.15;98211.31;4999649;28;20033;-86
2021/10/21 04:58:53;;;;;;;4.63;0.75;;;;;;;11.84;99.83;98223.31;4980825;28;20053;-86
2021/10/21 05:01:18;;;;;;;4.40;0.98;;;;;;;11.83;100.00;98222.50;4990668;28;20970;-86
2021/10/21 05:03:43;;;;;;;5.00;0.85;;;;;;;11.77;100.00;98219.91;4997861;28;20049;-86
2021/10/21 05:06:09;;;;;;;4.28;0.90;;;;;;;11.72;100.00;98215.25;4970041;28;20038;-85
2021/10/21 05:08:35;;;;;;;5.45;1.00;;;;;;;11.67;100.00;98215.13;5000786;28;20404;-86
2021/10/21 05:11:00;;;;;;;5.03;1.00;;;;;;;11.60;100.00;98206.38;4983248;28;20487;-86
2021/10/21 05:13:25;;;;;;;4.03;1.02;;;;;;;11.53;100.00;98212.66;5000921;28;20140;-86
2021/10/21 05:15:51;;;;;;;2.88;1.27;;;;;;;11.48;100.00;98209.88;4985195;28;20177;-87
2021/10/21 05:18:16;;;;;;;5.10;1.15;;;;;;;11.46;100.00;98201.22;4966409;28;20054;-86
2021/10/21 05:20:42;;;;;;;5.78;1.50;;;;;;;11.43;100.00;98199.00;4997772;28;20109;-86
2021/10/21 05:23:08;;;;;;;6.47;1.38;;;;;;;11.42;100.00;98204.59;4990478;28;20045;-86
2021/10/21 05:25:33;;;;;;;5.97;1.10;;;;;;;11.37;100.00;98196.44;4984131;28;20805;-87
2021/10/21 05:27:59;;;;;;;4.35;0.80;;;;;;;11.35;100.00;98231.56;5001981;28;20054;-86
2021/10/21 05:30:25;;;;;;;4.78;0.80;;;;;;;11.34;100.00;98221.91;4999872;28;20497;-86
2021/10/21 05:32:51;;;;;;;7.00;1.10;;;;;;;11.33;100.00;98222.94;4995319;28;20042;-86
2021/10/21 05:35:16;;;;;;;7.35;1.13;;;;;;;11.35;100.00;98228.06;5001597;28;20046;-86
2021/10/21 05:37:42;;;;;;;4.18;0.80;;;;;;;11.32;100.00;98240.09;4996426;28;20046;-87
2021/10/21 05:40:07;;;;;;;4.45;1.10;;;;;;;11.33;100.00;98230.16;4986356;28;20104;-86
2021/10/21 05:42:33;;;;;;;2.83;0.80;;;;;;;11.33;100.00;98224.78;4999787;28;20546;-87
2021/10/21 05:44:59;;;;;;;4.55;0.98;;;;;;;11.35;100.00;98244.19;5002904;28;20057;-86
2021/10/21 05:47:25;;;;;;;7.10;1.10;;;;;;;11.32;100.00;98250.03;4985039;28;20493;-86
2021/10/21 05:49:50;;;;;;;5.00;1.15;;;;;;;11.34;100.00;98247.94;4981585;28;20085;-85
2021/10/21 05:52:16;;;;;;;5.35;0.93;;;;;;;11.34;100.00;98254.13;5002674;28;20038;-86
2021/10/21 05:54:42;;;;;;;2.90;0.70;;;;;;;11.35;100.00;98266.47;5002015;28;20579;-86
2021/10/21 05:57:08;;;;;;;3.92;0.90;;;;;;;11.35;100.00;98271.84;5002570;28;20049;-86
2021/10/21 05:59:33;;;;;;;3.65;0.80;;;;;;;11.37;100.00;98277.00;4998485;28;20048;-87
2021/10/21 06:02:00;;;;;;;3.70;0.80;;;;;;;11.35;100.00;98269.16;5001489;28;20086;-87
2021/10/21 06:04:25;;;;;;;3.42;1.10;;;;;;;11.36;100.00;98289.59;5006766;28;20050;-87
2021/10/21 06:06:51;;;;;;;4.43;1.00;;;;;;;11.36;100.00;98294.97;4993930;28;20093;-87
2021/10/21 06:09:20;;;;;;;6.28;1.10;;;;;;;11.37;100.00;98293.13;5001267;28;20585;-87
2021/10/21 06:11:46;;;;;;;3.30;0.90;;;;;;;11.40;100.00;98311.44;5003464;28;20108;-87
2021/10/21 06:14:12;;;;;;;4.82;1.00;;;;;;;11.39;100.00;98318.66;4986367;28;20463;-87
2021/10/21 06:16:38;;;;;;;3.33;0.93;;;;;;;11.40;100.00;98333.75;4985773;28;20034;-87
2021/10/21 06:19:05;;;;;;;3.92;1.20;;;;;;;11.40;100.00;98339.13;4987551;28;20058;-88
2021/10/21 06:21:30;;;;;;;2.92;0.88;;;;;;;11.40;100.00;98347.16;4983528;28;20058;-87
2021/10/21 06:23:56;;;;;;;5.85;1.38;;;;;;;11.37;100.00;98355.69;4986590;28;20451;-88
2021/10/21 06:26:22;;;;;;;2.85;1.17;;;;;;;11.34;100.00;98379.50;5003187;28;20452;-87
2021/10/21 06:28:51;;;;;;;3.33;1.10;;;;;;;11.34;100.00;98500.31;4987986;28;20037;-87
2021/10/21 06:31:17;;;;;;;2.45;0.80;;;;;;;11.11;100.00;98514.41;4982010;28;20176;-87
2021/10/21 06:33:43;;;;;;;1.08;0.55;;;;;;;10.73;100.00;98531.47;5006593;28;20038;-88
2021/10/21 06:36:10;;;;;;;2.38;1.15;;;;;;;10.55;100.00;98551.84;4992284;28;20053;-86
2021/10/21 06:38:35;;;;;;;1.67;0.40;;;;;;;10.50;100.00;98558.91;4989307;28;20054;-87
2021/10/21 06:41:01;;;;;;;3.03;0.43;;;;;;;10.41;100.00;98582.47;4987194;28;20400;-87
2021/10/21 06:43:27;;;;;;;1.63;0.40;;;;;;;10.31;100.00;98604.41;4988109;28;20069;-87
2021/10/21 06:45:52;;;;;;;2.55;0.40;;;;;;;10.24;100.00;98613.50;4986391;28;20116;-88
2021/10/21 06:48:18;;;;;;;1.88;0.40;;;;;;;10.23;100.00;98635.97;5004967;28;20084;-87
2021/10/21 06:50:43;;;;;;;1.33;0.35;;;;;;;10.19;100.00;98642.81;4985337;28;20057;-87
2021/10/21 06:53:08;;;;;;;0.73;0.40;;;;;;;10.14;100.00;98675.59;4991474;28;20503;-88
2021/10/21 06:55:34;;;;;;;2.28;0.60;;;;;;;10.11;100.00;98710.88;4975450;28;20046;-88
2021/10/21 06:58:00;;;;;;;1.35;0.40;;;;;;;10.09;100.00;98737.06;4989803;28;20050;-88
2021/10/21 07:00:27;;;;;;;3.47;0.70;;;;;;;10.09;100.00;98748.59;5003515;28;20045;-87
2021/10/21 07:02:53;;;;;;;2.65;0.60;;;;;;;10.05;100.00;98763.47;5000769;28;20042;-87
2021/10/21 07:05:22;;;;;;;2.40;0.80;;;;;;;10.05;100.00;98790.25;4983703;28;20038;-88
2021/10/21 07:07:48;;;;;;;0.93;0.40;;;;;;;10.08;100.00;98795.19;5003145;28;20042;-87
2021/10/21 07:10:14;;;;;;;4.32;0.90;;;;;;;10.07;100.00;98817.69;4993164;28;20119;-86
2021/10/21 07:12:42;;;;;;;4.18;0.88;;;;;;;10.09;100.00;98836.22;5002099;28;20046;-88
2021/10/21 07:15:09;;;;;;;3.53;0.93;;;;;;;10.10;100.00;98851.28;5002369;28;20527;-88
2021/10/21 07:17:38;;;;;;;3.97;1.55;;;;;;;10.09;100.00;98879.09;4984693;28;20464;-88
2021/10/21 07:20:06;;;;;;;3.47;0.75;;;;;;;10.05;100.00;98902.81;5003732;28;20042;-87
2021/10/21 07:22:32;;;;;;;6.55;1.05;;;;;;;10.05;100.00;98923.44;5003572;28;20049;-88
2021/10/21 07:24:58;;;;;;;3.83;1.77;;;;;;;10.04;100.00;98949.41;5007468;28;20046;-87
2021/10/21 07:27:24;;;;;;;3.53;0.90;;;;;;;10.05;100.00;98966.31;5012662;28;20046;-88
2021/10/21 07:29:50;;;;;;;4.82;0.80;;;;;;;10.07;100.00;98983.00;5028322;28;20038;-87
2021/10/21 07:32:15;;;;;;;4.88;1.10;;;;;;;10.05;100.00;98985.88;5000599;28;20045;-88
2021/10/21 07:34:42;;;;;;;4.60;1.02;;;;;;;10.05;100.00;98993.94;4987806;28;20134;-87
2021/10/21 07:37:11;;;;;;;4.25;1.10;;;;;;;10.05;100.00;99004.66;5004485;28;20046;-87
2021/10/21 07:39:37;;;;;;;4.30;1.00;;;;;;;10.07;100.00;99020.50;4988579;28;20511;-89
2021/10/21 07:42:03;;;;;;;3.40;1.00;;;;;;;10.09;100.00;99039.91;4998276;28;20074;-87
2021/10/21 07:44:36;;;;;;;5.35;1.20;;;;;;;10.08;100.00;99036.41;5001480;28;20193;-88
2021/10/21 07:47:02;;;;;;;6.40;1.00;;;;;;;10.08;100.00;99057.03;4987588;28;20041;-88
2021/10/21 07:49:28;;;;;;;5.70;1.10;;;;;;;10.08;100.00;99065.06;4986110;28;20046;-87
2021/10/21 07:51:54;;;;;;;3.55;1.15;;;;;;;10.08;100.00;99073.91;5001261;28;20500;-87
2021/10/21 07:54:23;;;;;;;6.10;1.00;;;;;;;10.09;100.00;99094.31;5002918;28;20045;-88
2021/10/21 07:56:49;;;;;;;6.13;0.90;;;;;;;10.12;100.00;99098.47;4998765;28;20042;-87
2021/10/21 07:59:14;;;;;;;5.68;1.73;;;;;;;10.15;100.00;99127.53;5003318;28;20401;-87
2021/10/21 08:01:40;;;;;;;6.07;1.38;;;;;;;10.17;100.00;99144.25;4985362;28;20041;-88
2021/10/21 08:04:07;;;;;;;5.07;0.95;;;;;;;10.19;100.00;99163.66;4993451;28;20053;-87
2021/10/21 08:06:33;;;;;;;6.38;1.52;;;;;;;10.23;100.00;99151.47;4994681;28;20042;-88
2021/10/21 08:08:59;;;;;;;5.40;1.45;;;;;;;10.29;100.00;99164.09;5004441;28;20042;-87
2021/10/21 08:11:25;;;;;;;7.57;1.13;;;;;;;10.29;100.00;99184.72;4998428;28;20033;-88
2021/10/21 08:13:51;;;;;;;4.07;1.25;;;;;;;10.34;100.00;99201.03;4975017;28;20049;-87
2021/10/21 08:16:17;;;;;;;7.18;1.15;;;;;;;10.39;100.00;99214.69;4986026;28;20049;-88
2021/10/21 08:18:43;;;;;;;7.57;1.30;;;;;;;10.43;100.00;99215.09;4985189;28;20037;-87
2021/10/21 08:21:08;;;;;;;8.23;1.27;;;;;;;10.47;100.00;99227.06;5001529;28;20042;-87
2021/10/21 08:23:34;;;;;;;7.03;1.77;;;;;;;10.51;100.00;99239.88;5003479;28;20040;-87
2021/10/21 08:25:59;;;;;;;11.88;1.80;;;;;;;10.56;100.00;99229.38;5000731;28;20068;-87
2021/10/21 08:28:24;;;;;;;7.88;1.90;;;;;;;10.61;100.00;99256.41;4987937;28;20095;-88
2021/10/21 08:30:50;;;;;;;6.35;1.65;;;;;;;10.61;100.00;99261.78;4984414;28;20459;-88
2021/10/21 08:33:16;;;;;;;8.38;1.85;;;;;;;10.65;100.00;99261.41;5002344;28;20037;-88
2021/10/21 08:35:41;;;;;;;12.02;1.70;;;;;;;10.65;100.00;99264.91;4984872;28;20128;-88
2021/10/21 08:38:07;;;;;;;8.48;1.77;;;;;;;10.66;100.00;99285.31;4986480;28;20049;-88
2021/10/21 08:40:34;;;;;;;7.85;1.60;;;;;;;10.68;100.00;99293.19;5004129;28;20065;-87
2021/10/21 08:43:07;;;;;;;11.10;1.80;;;;;;;10.71;100.00;99308.88;4996086;28;20042;-88
2021/10/21 08:45:33;;;;;;;12.18;1.70;;;;;;;10.72;100.00;99331.97;4988183;28;20132;-87
2021/10/21 08:48:02;;;;;;;11.15;2.08;;;;;;;10.66;100.00;99344.34;4984260;28;20092;-87
2021/10/21 08:50:30;;;;;;;6.25;1.60;;;;;;;10.64;100.00;99354.44;4984478;28;20045;-88
2021/10/21 08:52:55;;;;;;;9.38;2.08;;;;;;;10.52;100.00;99330.03;4985285;28;20084;-86
2021/10/21 08:55:21;;;;;;;11.48;1.95;;;;;;;10.47;100.00;99343.25;4985868;28;20567;-87
2021/10/21 08:57:47;;;;;;;10.82;2.17;;;;;;;10.43;100.00;99362.59;4986532;28;20255;-87
2021/10/21 09:00:13;;;;;;;7.07;1.85;;;;;;;10.46;100.00;99362.19;4987622;28;20119;-87
2021/10/21 09:02:53;;;;;;;8.13;2.10;;;;;;;10.49;100.00;99373.34;4984858;28;20464;-87
2021/10/21 09:05:35;;;;;;;9.10;2.17;;;;;;;10.53;100.00;99377.31;4985731;28;20120;-87
2021/10/21 09:08:10;;;;;;;11.48;2.50;;;;;;;10.53;100.00;99369.25;4983650;28;20497;-87
2021/10/21 09:10:46;;;;;;;10.15;2.00;;;;;;;10.49;100.00;99384.06;4987285;28;20046;-88
2021/10/21 09:13:30;;;;;;;15.20;2.08;;;;;;;10.53;100.00;99409.50;4998545;28;20408;-87
2021/10/21 09:15:58;;;;;;;10.13;2.15;;;;;;;10.61;98.61;99406.63;4985812;28;20041;-87
2021/10/21 09:18:25;;;;;;;10.23;1.95;;;;;;;10.74;98.16;99391.66;4992230;28;20188;-87
2021/10/21 09:20:51;;;;;;;10.85;1.75;;;;;;;10.81;95.33;99398.69;4999746;28;20042;-88
2021/10/21 09:23:19;;;;;;;11.40;1.35;;;;;;;10.89;92.55;99408.44;5005774;28;20476;-87
2021/10/21 09:25:46;;;;;;;7.85;1.90;;;;;;;10.99;91.01;99422.31;5004743;28;20045;-87
2021/10/21 09:28:18;;;;;;;7.05;1.63;;;;;;;11.10;90.26;99420.06;5001455;28;20496;-87
2021/10/21 09:31:08;;;;;;;8.82;1.73;;;;;;;11.17;87.69;99426.31;5000283;28;20045;-88
2021/10/21 09:33:55;;;;;;;8.02;1.58;;;;;;;11.25;86.73;99448.44;4987436;28;20103;-86
2021/10/21 09:36:22;;;;;;;10.73;1.73;;;;;;;11.29;84.90;99438.94;4972585;28;20061;-87
2021/10/21 09:38:55;;;;;;;8.18;2.13;;;;;;;11.35;84.68;99448.03;4986316;28;20049;-87
2021/10/21 09:41:24;;;;;;;10.27;1.65;;;;;;;11.39;84.54;99441.22;5003029;28;20465;-87
2021/10/21 09:43:52;;;;;;;12.02;2.22;;;;;;;11.35;84.46;99485.63;4985606;28;20125;-88
2021/10/21 09:46:30;;;;;;;5.30;1.67;;;;;;;11.37;85.57;99472.03;5003127;28;20056;-88
2021/10/21 09:49:33;;;;;;;11.40;2.37;;;;;;;11.37;86.31;99474.72;5001289;28;20053;-87
2021/10/21 09:52:01;;;;;;;6.15;1.80;;;;;;;11.35;85.79;99517.88;4991603;28;20736;-87
2021/10/21 09:54:27;;;;;;;7.73;1.60;;;;;;;11.32;85.63;99515.59;5009927;28;20112;-88
2021/10/21 09:57:13;;;;;;;7.93;1.63;;;;;;;11.25;86.41;99523.63;5001079;28;20041;-87
2021/10/21 09:59:40;;;;;;;6.65;1.60;;;;;;;11.12;87.67;99523.53;4994381;28;20095;-88
2021/10/21 10:02:22;;;;;;;6.50;1.20;;;;;;;10.95;90.13;99544.50;5005052;28;20045;-87
2021/10/21 10:04:52;;;;;;;8.38;1.30;;;;;;;10.78;91.66;99567.31;5000711;28;20038;-87
2021/10/21 10:07:21;;;;;;;6.38;1.40;;;;;;;10.72;92.48;99552.00;5005787;28;20049;-87
2021/10/21 10:09:48;;;;;;;6.00;1.20;;;;;;;10.67;93.01;99573.22;5003314;28;20062;-87
2021/10/21 10:12:15;;;;;;;7.57;2.22;;;;;;;10.63;93.28;99574.63;4993105;28;20050;-88
2021/10/21 10:14:45;;;;;;;10.85;2.00;;;;;;;10.55;93.75;99560.31;5001583;28;20033;-87
2021/10/21 10:17:14;;;;;;;7.45;2.17;;;;;;;10.55;94.77;99576.41;4989141;28;20093;-87
2021/10/21 10:19:48;;;;;;;7.63;1.20;;;;;;;10.56;95.65;99570.03;4986333;28;20050;-87
2021/10/21 10:22:25;;;;;;;7.78;1.70;;;;;;;10.54;96.26;99585.50;4985938;28;20041;-87
2021/10/21 10:24:52;;;;;;;4.90;1.20;;;;;;;10.48;96.86;99583.59;4992627;28;20050;-87
2021/10/21 10:27:24;;;;;;;5.32;1.33;;;;;;;10.44;97.77;99594.88;5005932;28;20045;-87
2021/10/21 10:29:51;;;;;;;6.95;1.38;;;;;;;10.36;98.30;99590.50;5001765;28;20487;-88
2021/10/21 10:32:33;;;;;;;5.72;1.73;;;;;;;10.34;99.11;99608.63;4988069;28;20081;-87
2021/10/21 10:35:03;;;;;;;7.10;1.38;;;;;;;10.30;99.81;99623.41;4998102;28;20046;-87
2021/10/21 10:37:29;;;;;;;7.68;1.48;;;;;;;10.22;100.00;99589.50;5002766;28;20060;-87
2021/10/21 10:40:00;;;;;;;10.00;1.60;;;;;;;10.24;100.00;99595.50;4988119;28;20066;-87
2021/10/21 10:42:29;;;;;;;6.85;1.90;;;;;;;10.20;100.00;99604.13;4991247;28;20033;-87
2021/10/21 10:44:54;;;;;;;7.00;1.33;;;;;;;10.17;100.00;99616.88;5004414;28;20795;-87
2021/10/21 10:47:48;;;;;;;10.48;1.50;;;;;;;10.15;100.00;99597.47;4991429;28;20030;-87
2021/10/21 10:50:16;;;;;;;5.30;1.60;;;;;;;10.15;100.00;99607.34;4977588;28;20049;-87
2021/10/21 10:52:46;;;;;;;5.55;1.55;;;;;;;10.13;100.00;99601.38;4983744;28;20045;-87
2021/10/21 10:55:23;;;;;;;5.53;1.77;;;;;;;10.11;100.00;99606.91;5007195;28;20050;-87
2021/10/21 10:57:51;;;;;;;6.55;1.80;;;;;;;10.04;100.00;99616.75;5023356;28;20081;-87
2021/10/21 11:00:35;;;;;;;8.52;2.17;;;;;;;10.02;100.00;99610.75;5009208;28;20109;-87
2021/10/21 11:03:00;;;;;;;10.05;2.20;;;;;;;9.98;100.00;99622.84;4996322;28;20037;-87
2021/10/21 11:05:52;;;;;;;6.32;2.13;;;;;;;9.92;100.00;99618.25;5004221;28;20046;-87
2021/10/21 11:08:18;;;;;;;6.35;2.17;;;;;;;9.90;100.00;99602.38;4988952;28;20077;-87
2021/10/21 11:10:45;;;;;;;6.50;2.70;;;;;;;9.89;100.00;99607.91;5003748;28;20129;-87
2021/10/21 11:13:24;;;;;;;8.70;2.60;;;;;;;9.80;100.00;99617.06;4986368;28;20121;-88
2021/10/21 11:15:51;;;;;;;7.50;2.45;;;;;;;9.80;100.00;99606.34;4999364;28;20044;-87
2021/10/21 11:18:43;;;;;;;8.32;2.80;;;;;;;9.82;100.00;99628.44;4996933;28;20034;-87
2021/10/21 11:21:47;;;;;;;5.18;3.00;;;;;;;9.78;100.00;99611.06;4957124;28;20452;-88
2021/10/21 11:24:51;;;;;;;11.02;4.68;;;;;;;9.80;100.00;99614.41;4976779;28;20047;-87
2021/10/21 11:27:25;;;;;;;11.82;4.03;;;;;;;9.81;100.00;99616.03;4972673;28;20034;-87
2021/10/21 11:29:53;;;;;;;9.25;3.63;;;;;;;9.84;100.00;99596.91;4991802;28;20403;-87